Time;durP1;ratioP1;P1;durP2;ratioP2;P2;SDS_P1;SDS_P2;PMS_P1;PMS_P2;Temp;Humidity;BMP_temperature;BMP_pressure;BME280_temperature;BME280_humidity;BME280_pressure;Samples;Min_cycle;Max_cycle;Signal;HPM_P1;HPM_P2
2022/07/29 00:01:58;;;;;;;10.65;8.77;;;;;;;16.35;73.96;101131.19;7404109;19;19999;-61
2022/07/29 00:04:26;;;;;;;13.38;8.02;;;;;;;16.34;74.00;101123.97;7401028;19;20477;-52
2022/07/29 00:06:56;;;;;;;14.40;8.82;;;;;;;16.35;74.39;101124.78;7400938;19;20082;-51
2022/07/29 01:02:27;;;;;;;13.82;10.52;;;;;;;16.76;75.29;101125.84;7346284;19;20014;-51
2022/07/29 01:04:56;;;;;;;19.33;10.80;;;;;;;16.81;75.26;101115.09;7349085;19;20011;-55
2022/07/29 01:07:29;;;;;;;15.23;10.63;;;;;;;16.82;75.78;101116.72;7347164;19;20017;-53
2022/07/29 01:09:58;;;;;;;13.63;10.27;;;;;;;16.83;75.89;101107.16;7347014;19;20638;-55
2022/07/29 01:12:28;;;;;;;12.85;8.75;;;;;;;16.86;75.70;101111.19;7377366;19;20416;-53
2022/07/29 01:15:02;;;;;;;14.43;9.98;;;;;;;16.87;76.07;101105.22;7399327;19;20085;-51
2022/07/29 01:17:33;;;;;;;15.27;9.23;;;;;;;16.89;76.07;101110.44;7359349;19;20388;-52
2022/07/29 01:20:15;;;;;;;16.63;9.98;;;;;;;16.90;76.54;101103.66;7347612;19;20014;-54
2022/07/29 01:23:07;;;;;;;14.33;8.50;;;;;;;16.87;76.39;101110.81;7350636;19;20483;-53
2022/07/29 01:26:09;;;;;;;11.88;9.88;;;;;;;16.86;76.49;101108.41;7349359;19;20010;-53
2022/07/29 01:29:03;;;;;;;;;;;;;;;16.88;76.73;101106.03;7346056;19;20026;-55
2022/07/29 01:31:43;;;;;;;13.20;8.25;;;;;;;16.96;75.56;101104.94;7341771;19;21082;-55
2022/07/29 01:34:49;;;;;;;14.93;9.25;;;;;;;16.98;76.07;101113.75;7344246;19;20033;-52
2022/07/29 01:37:23;;;;;;;14.65;9.57;;;;;;;16.94;76.09;101115.69;7344514;19;20025;-56
2022/07/29 01:39:53;;;;;;;12.45;9.30;;;;;;;16.94;76.00;101110.88;7346223;19;20026;-50
2022/07/29 01:42:33;;;;;;;12.45;9.40;;;;;;;16.92;76.65;101112.44;7351914;19;20010;-49
2022/07/29 01:45:30;;;;;;;14.07;10.35;;;;;;;16.91;76.76;101110.84;7397874;19;20799;-50
2022/07/29 01:48:22;;;;;;;16.05;9.57;;;;;;;16.91;76.49;101111.66;7390893;19;20651;-53
2022/07/29 01:51:27;;;;;;;36.13;10.48;;;;;;;16.93;76.51;101114.06;7341806;19;20026;-55
2022/07/29 01:54:34;;;;;;;15.32;10.20;;;;;;;16.87;77.09;101110.00;7340756;19;21749;-51
2022/07/29 01:57:27;;;;;;;12.10;9.23;;;;;;;16.86;77.01;101108.41;7344479;19;20676;-53
2022/07/29 02:00:17;;;;;;;16.85;11.48;;;;;;;16.87;76.64;101113.59;7340034;19;20179;-52
2022/07/29 02:02:48;;;;;;;14.20;8.68;;;;;;;16.87;77.13;101110.81;7345545;19;20017;-52
2022/07/29 02:05:21;;;;;;;12.57;9.82;;;;;;;16.88;77.03;101117.22;7344121;19;20027;-56
2022/07/29 02:07:52;;;;;;;12.73;9.75;;;;;;;16.87;77.01;101110.00;7346181;19;20472;-53
2022/07/29 02:10:23;;;;;;;10.73;7.73;;;;;;;16.84;77.50;101119.13;7344683;19;20010;-55
2022/07/29 02:12:54;;;;;;;10.63;8.77;;;;;;;16.85;77.14;101123.56;7383207;19;20477;-48
2022/07/29 02:15:29;;;;;;;13.70;8.75;;;;;;;16.84;77.50;101119.13;7396671;19;20030;-52
2022/07/29 02:18:01;;;;;;;13.45;9.18;;;;;;;16.89;77.44;101116.81;7396278;19;20513;-51
2022/07/29 02:20:30;;;;;;;16.02;9.48;;;;;;;16.92;77.42;101118.06;7396306;19;20014;-51
2022/07/29 02:23:02;;;;;;;14.88;10.25;;;;;;;16.92;77.51;101112.44;7393296;19;20021;-53
2022/07/29 02:25:30;;;;;;;21.08;11.38;;;;;;;16.89;77.17;101116.81;7397591;19;20010;-51
2022/07/29 02:28:05;;;;;;;13.20;10.00;;;;;;;16.90;77.41;101109.22;7396708;19;20333;-56
2022/07/29 02:30:36;;;;;;;16.00;8.85;;;;;;;16.93;77.05;101109.28;7395036;19;20018;-50
2022/07/29 02:33:05;;;;;;;12.27;9.30;;;;;;;16.93;77.27;101109.28;7375394;19;20732;-51
2022/07/29 02:35:32;;;;;;;8.90;7.07;;;;;;;16.92;76.91;101106.88;7344140;19;20102;-56
2022/07/29 02:40:51;;;;;;;11.60;7.72;;;;;;;16.92;76.87;101115.25;7344934;19;21818;-50
2022/07/29 02:43:22;;;;;;;9.00;6.35;;;;;;;16.95;76.43;101112.50;7340836;19;20079;-51
2022/07/29 02:45:52;;;;;;;10.15;6.55;;;;;;;16.99;75.49;101112.56;7340850;19;21183;-52
2022/07/29 02:48:27;;;;;;;8.30;5.15;;;;;;;17.02;75.25;101111.81;7342395;19;20023;-51
2022/07/29 02:51:04;;;;;;;7.75;4.97;;;;;;;16.99;74.70;101101.38;7344709;19;20103;-52
2022/07/29 02:53:33;;;;;;;7.55;4.03;;;;;;;16.98;74.85;101099.75;7342305;19;20047;-52
2022/07/29 02:56:16;;;;;;;5.03;3.60;;;;;;;16.90;74.35;101098.03;7343622;19;20118;-54
2022/07/29 02:58:52;;;;;;;9.88;3.92;;;;;;;16.86;74.49;101109.22;7345353;19;20089;-52
2022/07/29 03:01:25;;;;;;;7.90;2.97;;;;;;;16.90;74.58;101103.66;7338709;19;20558;-53
2022/07/29 03:03:54;;;;;;;5.80;3.22;;;;;;;16.88;74.29;101100.44;7346305;19;20006;-52
2022/07/29 03:06:25;;;;;;;9.93;4.30;;;;;;;16.85;74.56;101095.59;7351386;19;20782;-49
2022/07/29 03:09:06;;;;;;;6.85;2.55;;;;;;;16.81;74.64;101100.34;7395038;19;20056;-53
2022/07/29 04:10:19;;;;;;;4.90;1.58;;;;;;;16.57;72.66;101137.94;7344207;19;20451;-53
2022/07/29 04:13:05;;;;;;;1.83;1.48;;;;;;;16.55;73.24;101147.88;7347066;19;20014;-52
2022/07/29 04:15:33;;;;;;;4.97;2.13;;;;;;;16.52;73.62;101134.63;7347370;19;20502;-50
2022/07/29 04:18:00;;;;;;;2.90;1.88;;;;;;;16.52;73.88;101143.00;7344857;19;20021;-52
2022/07/29 04:20:30;;;;;;;4.07;2.00;;;;;;;16.50;74.22;101134.19;7346999;19;20014;-51
2022/07/29 04:22:58;;;;;;;3.78;2.95;;;;;;;16.50;74.40;101139.75;7346328;19;20069;-53
2022/07/29 04:25:25;;;;;;;5.57;2.63;;;;;;;16.50;74.63;101139.75;7348872;19;20018;-54
2022/07/29 04:28:02;;;;;;;4.25;2.53;;;;;;;16.43;75.06;101135.69;7346281;19;20017;-54
2022/07/29 04:30:52;;;;;;;4.07;2.40;;;;;;;16.35;75.72;101138.75;7346843;19;20027;-52
2022/07/29 04:33:40;;;;;;;3.67;2.30;;;;;;;16.34;75.58;101137.13;7350776;19;20085;-56
2022/07/29 04:36:28;;;;;;;4.53;2.45;;;;;;;16.38;75.75;101133.22;7369755;19;20086;-51
2022/07/29 04:39:17;;;;;;;3.03;2.20;;;;;;;16.38;75.62;101144.41;7399257;19;20037;-54
2022/07/29 04:42:09;;;;;;;6.70;2.20;;;;;;;16.44;75.69;101145.69;7399609;19;20011;-54
2022/07/29 04:44:57;;;;;;;5.32;2.60;;;;;;;16.46;76.02;101142.53;7404733;19;20015;-53
2022/07/29 04:47:47;;;;;;;3.20;2.38;;;;;;;16.47;75.76;101144.13;7399752;19;20014;-57
2022/07/29 04:50:40;;;;;;;4.45;2.65;;;;;;;16.47;76.08;101137.75;7347551;19;20028;-53
2022/07/29 04:53:28;;;;;;;5.70;2.20;;;;;;;16.47;76.33;101134.94;7345941;19;20031;-54
2022/07/29 04:56:16;;;;;;;3.03;1.73;;;;;;;16.44;76.49;101134.50;7345275;19;20011;-55
2022/07/29 04:58:44;;;;;;;3.35;2.50;;;;;;;16.42;76.35;101131.28;7345750;19;20053;-51
2022/07/29 05:01:11;;;;;;;4.22;3.25;;;;;;;16.41;76.86;101132.44;7343379;19;20103;-55
2022/07/29 05:03:39;;;;;;;3.55;2.28;;;;;;;16.38;76.98;101133.22;7347231;19;20002;-52
2022/07/29 05:06:06;;;;;;;6.35;2.90;;;;;;;16.39;76.91;101134.81;7349977;19;20014;-53
2022/07/29 05:08:36;;;;;;;3.05;1.90;;;;;;;16.42;77.13;101130.47;7347866;19;20093;-55
2022/07/29 05:11:09;;;;;;;3.33;1.95;;;;;;;16.44;76.76;101134.50;7360451;19;20018;-49
2022/07/29 05:13:46;;;;;;;4.15;3.28;;;;;;;16.43;77.07;101124.53;7398753;19;20482;-49
2022/07/29 05:16:13;;;;;;;2.45;2.20;;;;;;;16.43;77.33;101120.91;7399286;19;20356;-55
2022/07/29 05:18:41;;;;;;;3.05;1.58;;;;;;;16.39;77.64;101120.84;7401868;19;20015;-51
2022/07/29 05:21:11;;;;;;;4.80;1.95;;;;;;;16.41;77.58;101126.84;7400064;19;20463;-50
2022/07/29 05:23:41;;;;;;;2.72;1.83;;;;;;;16.42;77.53;101130.47;7397478;19;20011;-53
2022/07/29 05:26:09;;;;;;;3.40;2.25;;;;;;;16.42;77.32;101133.25;7383232;19;20694;-56
2022/07/29 05:28:36;;;;;;;5.68;2.45;;;;;;;16.45;77.21;101127.75;7361999;19;20029;-53
2022/07/29 05:31:06;;;;;;;2.10;1.77;;;;;;;16.48;77.07;101136.53;7396693;19;20097;-51
2022/07/29 05:33:34;;;;;;;6.38;3.00;;;;;;;16.50;77.27;101134.19;7398517;19;20476;-48
2022/07/29 05:36:06;;;;;;;4.10;2.60;;;;;;;16.51;77.47;101135.81;7394348;19;20021;-53
2022/07/29 05:38:35;;;;;;;3.42;2.13;;;;;;;16.53;77.07;101139.06;7387572;19;20024;-56
2022/07/29 05:41:04;;;;;;;6.10;2.40;;;;;;;16.52;77.41;101137.44;7341585;19;20022;-52
2022/07/29 05:43:32;;;;;;;3.53;2.15;;;;;;;16.55;77.64;101131.91;7345669;19;20007;-54
2022/07/29 05:46:00;;;;;;;3.90;2.55;;;;;;;16.58;77.49;101135.94;7344525;19;20464;-52
2022/07/29 05:48:33;;;;;;;6.60;3.25;;;;;;;16.60;77.42;101133.59;7368576;19;20020;-51
2022/07/29 05:51:01;;;;;;;3.08;2.22;;;;;;;16.62;77.20;101134.00;7398060;19;20011;-56
2022/07/29 05:53:31;;;;;;;3.75;2.10;;;;;;;16.63;76.65;101133.63;7396074;19;20508;-53
2022/07/29 05:56:04;;;;;;;5.22;2.65;;;;;;;16.63;77.04;101141.19;7401223;19;20039;-48
2022/07/29 05:58:32;;;;;;;2.95;2.30;;;;;;;16.64;76.96;101143.63;7399680;19;20038;-51
2022/07/29 06:01:00;;;;;;;2.60;1.92;;;;;;;16.64;76.47;101145.63;7360468;19;21789;-56
2022/07/29 06:03:28;;;;;;;1.60;1.20;;;;;;;16.61;76.28;101140.78;7343961;19;20007;-56
2022/07/29 06:05:55;;;;;;;4.30;1.35;;;;;;;16.59;76.21;101137.56;7343250;19;20047;-54
2022/07/29 06:08:23;;;;;;;1.63;1.27;;;;;;;16.58;75.73;101141.53;7346040;19;20018;-53
2022/07/29 06:10:51;;;;;;;1.67;1.40;;;;;;;16.57;75.92;101134.34;7344971;19;20026;-52
2022/07/29 06:13:18;;;;;;;2.40;1.40;;;;;;;16.58;75.54;101138.72;7337862;19;20070;-56
2022/07/29 06:15:46;;;;;;;3.30;1.90;;;;;;;16.56;75.45;101138.31;7357920;19;20047;-53
2022/07/29 06:18:15;;;;;;;1.60;1.50;;;;;;;16.56;75.65;101138.31;7398719;19;20502;-51
2022/07/29 06:20:42;;;;;;;1.65;1.52;;;;;;;16.56;75.32;101139.13;7400376;19;20011;-51
2022/07/29 06:23:10;;;;;;;2.40;1.88;;;;;;;16.60;75.53;101141.97;7398482;19;20491;-51
2022/07/29 06:25:40;;;;;;;8.57;2.55;;;;;;;16.61;75.54;101129.59;7397520;19;20041;-51
2022/07/29 06:28:10;;;;;;;5.07;1.50;;;;;;;16.66;75.53;101132.06;7397806;19;20038;-51
2022/07/29 06:30:39;;;;;;;2.22;1.30;;;;;;;16.70;75.50;101135.72;7397038;19;20023;-47
2022/07/29 06:33:06;;;;;;;2.55;1.50;;;;;;;16.75;75.75;101138.19;7395269;19;20018;-49
2022/07/29 06:35:38;;;;;;;2.58;1.75;;;;;;;16.78;75.21;101154.22;7398774;19;20014;-52
2022/07/29 06:38:09;;;;;;;2.85;1.70;;;;;;;16.81;75.38;101153.47;7376780;19;20337;-55
2022/07/29 06:41:02;;;;;;;2.50;1.50;;;;;;;16.82;75.06;101147.50;7395652;19;20010;-49
2022/07/29 06:43:33;;;;;;;2.55;1.67;;;;;;;16.84;75.51;101150.72;7391073;19;20423;-54
2022/07/29 06:46:03;;;;;;;3.78;1.75;;;;;;;16.87;74.90;101143.56;7389581;19;20015;-49
2022/07/29 06:48:32;;;;;;;4.75;1.45;;;;;;;16.89;74.83;101149.59;7375910;19;20002;-53
2022/07/29 06:51:00;;;;;;;2.65;1.70;;;;;;;16.89;75.03;101153.19;7397291;19;20023;-51
2022/07/29 06:53:28;;;;;;;3.38;2.08;;;;;;;16.96;74.81;101152.47;7402168;19;20003;-55
2022/07/29 06:55:57;;;;;;;2.92;1.42;;;;;;;17.01;75.12;101152.97;7402677;19;20468;-52
2022/07/29 06:58:27;;;;;;;2.13;1.60;;;;;;;17.07;75.10;101153.44;7404229;19;20026;-51
2022/07/29 07:00:56;;;;;;;3.53;1.70;;;;;;;17.11;74.84;101162.69;7404604;19;20002;-52
2022/07/29 07:03:24;;;;;;;3.20;1.70;;;;;;;17.15;74.70;101159.94;7399617;19;20022;-51
2022/07/29 07:05:53;;;;;;;2.13;1.45;;;;;;;17.20;75.08;101154.81;7398722;19;20006;-48
2022/07/29 07:08:21;;;;;;;4.15;1.65;;;;;;;17.26;74.65;101155.28;7399481;19;20006;-52
2022/07/29 07:10:50;;;;;;;2.78;1.23;;;;;;;17.33;74.65;101156.19;7398369;19;20006;-51
2022/07/29 07:13:18;;;;;;;3.20;1.38;;;;;;;17.41;74.65;101162.66;7390077;19;20114;-56
2022/07/29 07:15:48;;;;;;;3.28;1.55;;;;;;;17.45;74.61;101158.72;7386485;19;20078;-50
2022/07/29 07:18:16;;;;;;;6.28;1.95;;;;;;;17.48;74.05;101157.94;7404566;19;20035;-52
2022/07/29 07:20:44;;;;;;;1.92;1.38;;;;;;;17.53;74.22;101160.44;7388114;19;20050;-54
2022/07/29 07:23:12;;;;;;;2.30;1.70;;;;;;;17.60;74.08;101166.13;7399027;19;20062;-50
2022/07/29 07:25:39;;;;;;;3.63;1.90;;;;;;;17.69;74.28;101170.59;7401079;19;20490;-48
2022/07/29 07:31:57;;;;;;;3.00;1.15;;;;;;;17.89;73.53;101166.44;7405768;19;20006;-52
2022/07/29 07:34:47;;;;;;;2.47;1.13;;;;;;;17.97;73.63;101168.13;7402829;19;20018;-50
2022/07/29 07:37:35;;;;;;;2.75;1.98;;;;;;;18.07;73.60;101175.81;7403469;19;20033;-54
2022/07/29 07:58:19;;;;;;;3.60;1.45;;;;;;;18.39;71.75;101179.72;7396761;19;20026;-48
2022/07/29 08:07:55;;;;;;;4.32;1.05;;;;;;;18.59;71.31;101183.91;7398113;19;20469;-47
2022/07/29 08:10:52;;;;;;;1.70;1.20;;;;;;;18.73;71.39;101189.66;7401808;19;20019;-51
2022/07/29 08:13:44;;;;;;;6.10;1.80;;;;;;;18.82;70.67;101192.91;7398863;19;20054;-48
2022/07/29 08:28:26;;;;;;;3.22;1.05;;;;;;;18.98;69.07;101169.38;7388904;19;20010;-52
2022/07/29 08:31:14;;;;;;;1.70;0.88;;;;;;;19.05;69.37;101163.78;7396673;19;20010;-50
2022/07/29 08:34:35;;;;;;;4.50;1.20;;;;;;;19.07;67.74;101165.00;7399759;19;20014;-52
2022/07/29 08:44:18;;;;;;;4.90;1.60;;;;;;;19.46;67.97;101158.81;7393133;19;20047;-58
2022/07/29 08:51:45;;;;;;;2.85;0.73;;;;;;;20.26;65.42;101140.50;7400013;19;20006;-51
2022/07/29 08:54:42;;;;;;;2.13;1.67;;;;;;;20.48;66.29;101153.38;7400384;19;20022;-51
2022/07/29 09:01:38;;;;;;;7.07;1.20;;;;;;;21.09;65.13;101149.28;7404720;19;20014;-50
2022/07/29 09:04:48;;;;;;;8.20;2.08;;;;;;;21.20;63.18;101156.50;7401990;19;20039;-51
2022/07/29 09:15:07;;;;;;;1.70;1.10;;;;;;;21.67;60.75;101151.44;7391555;19;20018;-48
2022/07/29 09:17:49;;;;;;;0.90;0.88;;;;;;;22.03;61.17;101157.72;7395430;19;20010;-52
2022/07/29 09:20:22;;;;;;;3.85;0.98;;;;;;;22.39;60.79;101154.19;7398777;19;20040;-52
2022/07/29 09:23:07;;;;;;;3.28;1.10;;;;;;;22.68;59.48;101134.22;7396805;19;20015;-53
2022/07/29 09:25:39;;;;;;;3.25;0.80;;;;;;;22.81;59.46;101141.72;7396995;19;20010;-49
2022/07/29 09:28:16;;;;;;;4.35;1.27;;;;;;;22.96;58.36;101143.19;7398776;19;20456;-52
2022/07/29 09:30:54;;;;;;;2.40;1.33;;;;;;;23.42;56.55;101141.84;7382742;19;20014;-52
2022/07/29 09:33:23;;;;;;;2.92;1.00;;;;;;;23.81;56.96;101149.78;7377267;19;20472;-54
2022/07/29 09:36:08;;;;;;;2.85;1.27;;;;;;;23.86;54.77;101147.28;7391075;19;20027;-50
2022/07/29 10:07:00;;;;;;;3.08;1.05;;;;;;;25.77;47.05;101141.78;7395266;19;20006;-48
2022/07/29 10:23:22;;;;;;;2.08;0.90;;;;;;;22.81;51.95;101135.28;7391183;19;20010;-50
2022/07/29 10:25:50;;;;;;;2.50;1.20;;;;;;;22.66;52.71;101139.47;7397514;19;20007;-50
2022/07/29 10:28:51;;;;;;;3.03;2.05;;;;;;;22.58;52.73;101138.72;7404025;19;20017;-50
2022/07/29 10:42:41;;;;;;;2.00;0.88;;;;;;;22.60;53.27;101136.28;7401207;19;20373;-51
2022/07/29 10:52:15;;;;;;;3.33;1.50;;;;;;;21.93;54.55;101147.28;7406822;19;20532;-48
2022/07/29 10:59:21;;;;;;;3.65;1.40;;;;;;;21.48;56.51;101144.28;7405356;19;20006;-51
2022/07/29 11:13:54;;;;;;;2.45;1.50;;;;;;;20.97;57.98;101139.22;7399762;19;20017;-53
2022/07/29 11:17:08;;;;;;;7.85;2.13;;;;;;;20.93;58.95;101144.06;7402605;19;20006;-54
2022/07/29 11:19:42;;;;;;;4.30;1.58;;;;;;;20.93;58.72;101141.25;7402911;19;20017;-52
2022/07/29 11:26:27;;;;;;;2.95;1.70;;;;;;;21.03;59.70;101148.84;7397508;19;20007;-50
2022/07/29 11:39:54;;;;;;;2.42;1.00;;;;;;;20.91;59.22;101148.50;7395084;19;20014;-48
2022/07/29 11:42:22;;;;;;;2.10;1.33;;;;;;;20.89;59.74;101146.06;7401301;19;20006;-49
2022/07/29 11:45:23;;;;;;;1.85;0.90;;;;;;;20.94;59.36;101137.22;7400697;19;20010;-51
2022/07/29 11:48:17;;;;;;;4.60;1.17;;;;;;;20.93;59.74;101141.25;7399713;19;20010;-48
2022/07/29 11:50:59;;;;;;;4.20;1.00;;;;;;;20.99;59.57;101134.00;7398100;19;20043;-51
2022/07/29 12:05:04;;;;;;;5.57;2.20;;;;;;;21.16;59.55;101127.53;7401703;19;20014;-49
2022/07/29 12:08:08;;;;;;;8.00;2.20;;;;;;;21.06;59.51;101119.94;7401986;19;20018;-52
2022/07/29 12:15:12;;;;;;;7.18;4.20;;;;;;;20.76;60.20;101128.00;7406340;19;20020;-52
2022/07/29 12:18:46;;;;;;;9.10;3.95;;;;;;;20.62;60.93;101120.38;7402289;19;20014;-52
2022/07/29 12:25:11;;;;;;;8.85;3.13;;;;;;;20.54;61.47;101123.66;7398625;19;19998;-49
2022/07/29 12:32:09;;;;;;;5.00;1.77;;;;;;;20.60;62.13;101133.25;7404654;19;20062;-47
2022/07/29 12:38:36;;;;;;;4.20;1.30;;;;;;;20.99;61.25;101133.19;7400959;19;20006;-51
2022/07/29 12:44:55;;;;;;;3.85;1.50;;;;;;;21.21;61.15;101113.03;7393980;19;20036;-52
2022/07/29 12:47:53;;;;;;;4.35;1.45;;;;;;;21.34;61.19;101118.22;7400421;19;20022;-50
2022/07/29 12:50:56;;;;;;;4.88;1.40;;;;;;;21.52;61.24;101116.91;7396959;19;20018;-49
2022/07/29 12:57:05;;;;;;;4.80;1.33;;;;;;;21.73;60.25;101121.63;7385764;19;20352;-49
2022/07/29 12:59:59;;;;;;;4.75;1.75;;;;;;;21.91;60.40;101113.88;7396644;19;20014;-52
2022/07/29 13:03:06;;;;;;;2.85;1.42;;;;;;;22.15;59.65;101114.91;7396207;19;20018;-51
2022/07/29 13:09:22;;;;;;;3.58;1.63;;;;;;;22.37;59.60;101103.00;7399504;19;20002;-47
2022/07/29 13:11:53;;;;;;;3.78;1.33;;;;;;;22.43;59.64;101101.34;7399436;19;20042;-49
2022/07/29 13:21:15;;;;;;;2.40;0.75;;;;;;;22.58;57.48;101092.75;7388695;19;20033;-52
2022/07/29 13:27:14;;;;;;;3.83;1.00;;;;;;;22.89;58.16;101091.63;7397229;19;20006;-50
2022/07/29 13:29:45;;;;;;;2.90;1.08;;;;;;;22.98;57.82;101100.41;7399747;19;20010;-49
2022/07/29 13:32:14;;;;;;;5.65;2.55;;;;;;;23.06;57.15;101090.59;7398606;19;20010;-50
2022/07/29 13:35:04;;;;;;;5.78;1.10;;;;;;;23.13;56.93;101103.84;7400148;19;20006;-52
2022/07/29 13:37:52;;;;;;;6.40;0.93;;;;;;;23.18;57.17;101098.53;7398408;19;20082;-53
2022/07/29 14:05:48;;;;;;;0.88;0.28;;;;;;;23.98;52.54;101075.22;7391626;19;20021;-48
2022/07/29 14:08:26;;;;;;;0.52;0.20;;;;;;;23.94;51.91;101068.78;7397657;19;20466;-51
2022/07/29 14:11:18;;;;;;;0.52;0.32;;;;;;;23.86;50.91;101070.13;7396623;19;20048;-48
2022/07/29 14:13:46;;;;;;;2.13;0.50;;;;;;;23.71;51.57;101074.41;7395862;19;20007;-53
2022/07/29 14:35:01;;;;;;;0.90;0.40;;;;;;;23.70;51.24;101061.50;7393192;19;20354;-50
2022/07/29 14:41:50;;;;;;;1.08;0.30;;;;;;;23.74;52.36;101068.72;7395848;19;20467;-53
2022/07/29 14:44:42;;;;;;;1.58;0.22;;;;;;;23.75;51.54;101059.00;7395251;19;20059;-53
2022/07/29 14:47:37;;;;;;;2.13;0.43;;;;;;;23.82;51.42;101060.91;7391792;19;20021;-51
2022/07/29 15:11:46;;;;;;;1.23;0.40;;;;;;;23.69;51.96;101057.09;7380247;19;20021;-55
2022/07/29 15:18:31;;;;;;;4.20;1.08;;;;;;;23.73;52.12;101058.63;7387057;19;20680;-49
2022/07/29 15:28:07;;;;;;;1.48;0.40;;;;;;;24.09;51.50;101050.41;7397983;19;20014;-55
2022/07/29 15:30:40;;;;;;;1.45;0.60;;;;;;;24.20;51.71;101037.66;7403238;19;20048;-51
2022/07/29 15:33:10;;;;;;;0.30;0.30;;;;;;;24.27;51.75;101044.44;7397303;19;20014;-54
2022/07/29 15:39:03;;;;;;;0.68;0.30;;;;;;;24.23;51.18;101033.97;7392999;19;20475;-54
2022/07/29 15:41:33;;;;;;;0.93;0.50;;;;;;;24.13;51.13;101034.16;7398570;19;20011;-48
2022/07/29 15:44:01;;;;;;;1.50;0.30;;;;;;;24.15;51.33;101043.00;7402199;19;20022;-53
2022/07/29 15:49:16;;;;;;;1.85;0.47;;;;;;;24.08;51.47;101026.97;7396484;19;20472;-59
2022/07/29 15:55:51;;;;;;;1.05;0.30;;;;;;;23.99;51.38;101026.69;7401662;19;20010;-50
2022/07/29 15:58:39;;;;;;;1.27;0.55;;;;;;;23.99;51.30;101029.50;7401033;19;20010;-51
2022/07/29 16:01:27;;;;;;;1.08;0.47;;;;;;;23.93;51.40;101024.78;7403243;19;20029;-53
2022/07/29 16:04:17;;;;;;;1.27;0.30;;;;;;;23.93;51.07;101013.47;7396189;19;20006;-53
2022/07/29 16:06:49;;;;;;;0.30;0.30;;;;;;;23.91;51.02;101021.56;7399344;19;20010;-49
2022/07/29 16:09:17;;;;;;;0.98;0.40;;;;;;;23.88;50.97;101017.56;7401622;19;20321;-53
2022/07/29 16:12:13;;;;;;;0.80;0.40;;;;;;;;;;7392319;19;20007;-49
2022/07/29 16:18:25;;;;;;;1.85;0.50;;;;;;;23.70;50.87;101004.97;7391729;19;20007;-54
2022/07/29 16:20:56;;;;;;;0.32;0.30;;;;;;;23.64;51.03;101010.31;7392372;19;20017;-51
2022/07/29 16:27:06;;;;;;;0.45;0.38;;;;;;;23.53;51.10;101007.66;7396208;19;20015;-48
2022/07/29 16:29:39;;;;;;;0.45;0.22;;;;;;;23.50;51.50;101002.84;7397618;19;20016;-48
2022/07/29 16:32:07;;;;;;;0.95;0.57;;;;;;;23.54;51.58;100997.13;7393808;19;20044;-53
2022/07/29 16:35:09;;;;;;;3.45;0.52;;;;;;;23.53;50.87;100995.56;7397017;19;20011;-53
2022/07/29 16:37:57;;;;;;;1.65;0.40;;;;;;;23.47;51.40;100998.06;7400344;19;20011;-51
2022/07/29 16:48:49;;;;;;;1.02;0.38;;;;;;;23.08;51.63;101009.09;7400400;19;20015;-52
2022/07/29 16:55:18;;;;;;;1.88;0.32;;;;;;;23.10;51.33;101001.00;7386739;19;20037;-51
2022/07/29 17:24:12;;;;;;;2.90;0.70;;;;;;;23.11;52.08;100980.00;7380543;19;20027;-54
2022/07/29 17:27:00;;;;;;;2.45;0.30;;;;;;;23.05;52.51;100978.88;7386708;19;20010;-51
2022/07/29 17:29:28;;;;;;;2.35;0.57;;;;;;;22.99;52.08;100984.19;7393017;19;20026;-52
2022/07/29 17:31:58;;;;;;;1.58;1.45;;;;;;;22.88;52.39;100971.44;7398700;19;20097;-52
2022/07/29 17:38:11;;;;;;;0.30;0.20;;;;;;;22.88;52.43;100982.72;7393718;19;20014;-54
2022/07/29 17:40:39;;;;;;;1.45;0.70;;;;;;;22.86;52.39;100988.00;7398916;19;20025;-52
2022/07/29 17:49:56;;;;;;;5.40;0.70;;;;;;;22.68;53.38;100974.13;7388911;19;20039;-51
2022/07/29 17:56:04;;;;;;;2.72;0.63;;;;;;;22.55;54.75;100969.41;7396207;19;20058;-48
2022/07/29 18:01:57;;;;;;;0.98;0.52;;;;;;;22.42;55.95;100969.16;7392059;19;20545;-49
2022/07/29 18:04:25;;;;;;;4.47;0.63;;;;;;;22.39;56.12;100970.81;7393173;19;20015;-52
2022/07/29 18:07:14;;;;;;;0.73;0.55;;;;;;;22.33;56.68;100963.22;7392270;19;20023;-54
2022/07/29 18:09:45;;;;;;;2.60;0.63;;;;;;;22.33;56.67;100964.03;7395263;19;20019;-51
2022/07/29 18:16:24;;;;;;;0.98;0.70;;;;;;;22.29;56.35;100968.09;7396272;19;20350;-51
2022/07/29 18:19:12;;;;;;;1.35;0.70;;;;;;;22.19;56.23;100975.44;7368332;19;20017;-53
2022/07/29 18:25:16;;;;;;;1.25;0.70;;;;;;;22.14;56.46;100961.81;7351839;19;20430;-48
2022/07/29 18:27:44;;;;;;;1.17;0.85;;;;;;;22.14;56.64;100958.97;7395789;19;20483;-54
2022/07/29 18:30:13;;;;;;;1.38;1.00;;;;;;;22.12;56.38;100964.25;7396510;19;20018;-49
2022/07/29 18:33:13;;;;;;;1.65;1.17;;;;;;;22.04;56.81;100959.91;7396902;19;20024;-53
2022/07/29 18:35:51;;;;;;;0.80;0.70;;;;;;;22.01;56.86;100960.72;7345771;19;20014;-53
2022/07/29 18:43:03;;;;;;;2.95;0.60;;;;;;;21.92;57.00;100963.25;7345010;19;20659;-52
2022/07/29 18:45:51;;;;;;;1.30;0.60;;;;;;;21.94;57.10;100963.63;7380880;19;20025;-55
2022/07/29 18:48:39;;;;;;;3.00;1.10;;;;;;;21.92;57.54;100954.78;7396371;19;20018;-51
2022/07/29 18:51:27;;;;;;;3.35;0.90;;;;;;;21.84;57.70;100954.00;7389284;19;20015;-50
2022/07/29 18:54:16;;;;;;;2.55;0.80;;;;;;;21.78;58.23;100949.25;7389589;19;20002;-49
2022/07/29 19:00:44;;;;;;;2.58;0.75;;;;;;;21.62;58.57;100963.06;7394837;19;20078;-51
2022/07/29 19:03:32;;;;;;;3.03;1.00;;;;;;;21.59;59.60;100964.72;7394084;19;20002;-49
2022/07/29 19:06:19;;;;;;;1.27;0.80;;;;;;;21.52;59.64;100969.59;7392974;19;20029;-52
2022/07/29 19:09:12;;;;;;;2.35;1.08;;;;;;;21.44;60.51;100962.41;7393185;19;20713;-50
2022/07/29 19:12:00;;;;;;;1.95;0.70;;;;;;;21.40;60.75;100970.09;7395894;19;20026;-52
2022/07/29 19:15:01;;;;;;;1.25;0.63;;;;;;;21.34;61.05;100975.34;7387086;19;20023;-48
2022/07/29 19:21:04;;;;;;;1.95;0.60;;;;;;;21.30;61.32;100979.41;7345020;19;20047;-51
2022/07/29 19:27:40;;;;;;;3.13;1.10;;;;;;;21.05;61.92;100980.31;7391952;19;20370;-48
2022/07/29 19:30:28;;;;;;;3.40;0.98;;;;;;;21.04;61.94;100984.38;7389537;19;20014;-50
2022/07/29 19:33:17;;;;;;;1.38;0.63;;;;;;;21.03;62.01;100981.94;7393477;19;20037;-47
2022/07/29 19:39:50;;;;;;;5.07;1.70;;;;;;;20.93;62.78;100975.19;7339751;19;20103;-52
2022/07/29 19:42:38;;;;;;;0.95;0.77;;;;;;;20.89;63.08;100980.00;7343470;19;20021;-54
2022/07/29 19:45:22;;;;;;;2.88;0.80;;;;;;;20.78;63.77;100979.28;7350976;19;20010;-53
2022/07/29 19:47:50;;;;;;;1.42;1.10;;;;;;;20.72;64.03;100980.91;7350615;19;20014;-52
2022/07/29 19:50:18;;;;;;;1.00;0.80;;;;;;;20.75;64.07;100980.09;7346428;19;20613;-50
2022/07/29 20:00:09;;;;;;;1.90;0.43;;;;;;;20.66;64.73;100979.72;7342121;19;20014;-53
2022/07/29 20:02:42;;;;;;;2.47;0.63;;;;;;;20.57;64.29;100976.56;7352327;19;21287;-51
2022/07/29 20:09:13;;;;;;;2.00;1.00;;;;;;;20.46;64.70;100982.22;7349298;19;20014;-55
2022/07/29 20:12:08;;;;;;;1.85;0.57;;;;;;;20.50;64.48;100985.00;7349766;19;20028;-53
2022/07/29 20:14:56;;;;;;;0.52;0.40;;;;;;;20.49;64.25;100974.97;7346608;19;20029;-53
2022/07/29 20:24:30;;;;;;;1.15;0.57;;;;;;;20.42;64.94;100980.59;7395871;19;20007;-51
2022/07/29 20:26:59;;;;;;;2.10;0.70;;;;;;;20.43;64.11;100987.84;7381115;19;20017;-49
2022/07/29 21:49:03;;;;;;;2.20;0.40;;;;;;;19.90;66.26;100957.81;7375475;19;20041;-57
2022/07/29 21:52:15;;;;;;;0.57;0.50;;;;;;;19.85;66.63;100952.59;7394945;19;20010;-48
2022/07/29 21:55:28;;;;;;;1.85;0.60;;;;;;;19.86;66.88;100947.75;7393718;19;20432;-52
2022/07/29 21:58:02;;;;;;;2.30;0.30;;;;;;;19.90;66.52;100960.63;7397834;19;20007;-53
2022/07/29 22:04:06;;;;;;;1.13;0.40;;;;;;;19.90;66.27;100937.31;7387405;19;20069;-50
2022/07/29 22:10:15;;;;;;;0.30;0.30;;;;;;;19.82;67.23;100936.53;7393278;19;20037;-54
2022/07/29 22:16:48;;;;;;;0.30;0.30;;;;;;;19.76;67.47;100938.16;7389750;19;20010;-52
2022/07/29 22:19:36;;;;;;;4.40;0.77;;;;;;;19.72;67.48;100945.78;7395893;19;20341;-50
2022/07/29 22:22:24;;;;;;;2.92;0.40;;;;;;;19.70;67.49;100942.56;7359880;19;20020;-51
2022/07/29 22:29:02;;;;;;;0.47;0.40;;;;;;;19.74;67.61;100946.19;7396985;19;20013;-49